Wylie, Texas
Current Conditions -  °F | °C
As of 8:55 PM on Sunday 23 Nov 2014 (Local Time) from KF46 Reporting Station
Clear Clear  
Wind Chill: 55°   Ceiling: Unl
Heat Index: 55°   Visibility: 10mi
Dew Point: 41°   Wind: 17mph
Humidity: 60%   Direction: 310°NW
Pressure: 29.67"   Gusts: 29mph
Location:  33.02°N, 96.51°W
Report Text: KF46 240255Z AUTO 31015G25KT 10SM CLR 13/05 A2967 RMK AO2 T01270050
Loading
Personal Weather Stations






























Interactive Weather Map New forecast layout! Learn more

10-Day Weather Forecast

Advertisements
Track Severe Weather on mobile